Main page
Satellite images 15-day forecastsClimateMarine weather Cyclones Lightning AirportsFAQ Newsletter About
Weather : Europe Africa North America South America Asia Australia-Oceania Others
Languages Contact

Ljubljana, Slovenia

Brnik

latitude: 46-13N, longitude: 014-29E, elevation: 385 m


METAR: LJLJ 021830Z VRB01KT 9999 -RA SCT003 OVC063 13/12 Q1015 NOSIG
short-TAF: out of date (41682 hours)
long-TAF: LJLJ 021700Z 0218/0318 VRB03KT 9999 -RA FEW005 BKN070 OVC090 BECMG 0303/0306 SCT060 BKN090

Time: 20:48 (18:48 UTC)

Current weather observation

The report was made 18 minutes ago, at 18:30 UTC  
Wind 01 kt from variable directions
Temperature 13°C
Humidity 94%
Pressure 1015 hPa
Visibility 10 km or more
Scattered clouds at a height of 300 ft
Overcast at a height of 6300 ft
light rain

Change units

Forecast

The report was made 1 hour and 45 minutes ago, at 17:03 UTC  
Forecast valid from 02 at 18 UTC to 03 at 18 UTC
Wind 03 kt from variable directions
Visibility 10 km or more
Few clouds at a height of 500 ft
Broken clouds at a height of 7000 ft
Overcast at a height of 9000 ft
light rain
Becoming
from 03 at 03 UTC to 03 at 06 UTC
Scattered clouds at a height of 6000 ft
Broken clouds at a height of 9000 ft
The information on this site is subject to a disclaimer
Weather : Europe Africa North America South America Asia Australia-Oceania Others
Satellite images 15-day forecastsClimateMarine weather Cyclones Lightning AirportsFAQ Languages Contact Newsletter About